Time;durP1;ratioP1;P1;durP2;ratioP2;P2;SDS_P1;SDS_P2;PMS_P1;PMS_P2;Temp;Humidity;BMP_temperature;BMP_pressure;BME280_temperature;BME280_humidity;BME280_pressure;Samples;Min_cycle;Max_cycle;Signal;HPM_P1;HPM_P2
2023/09/01 00:01:22;;;;;;;2.70;0.67;;;;;;;23.39;100.00;99760.19;4997451;28;20045;-59
2023/09/01 00:03:52;;;;;;;2.87;0.87;;;;;;;23.36;100.00;99708.91;5021796;28;20423;-56
2023/09/01 00:06:23;;;;;;;2.83;0.60;;;;;;;23.64;100.00;99727.09;5002071;28;20366;-57
2023/09/01 00:08:54;;;;;;;1.40;0.57;;;;;;;23.80;100.00;99736.56;5011134;28;20085;-57
2023/09/01 00:11:26;;;;;;;1.87;0.67;;;;;;;23.92;100.00;99724.94;5005319;28;20052;-58
2023/09/01 00:13:56;;;;;;;3.40;0.90;;;;;;;23.50;100.00;99644.69;5020557;28;20068;-59
2023/09/01 00:16:27;;;;;;;1.97;0.50;;;;;;;24.14;100.00;99744.53;5003056;28;20042;-59
2023/09/01 00:18:58;;;;;;;0.43;0.43;;;;;;;24.07;100.00;99745.03;4998754;28;20133;-58
2023/09/01 00:21:28;;;;;;;2.03;1.00;;;;;;;24.09;100.00;99742.25;5021141;28;20329;-57
2023/09/01 00:23:59;;;;;;;1.73;0.63;;;;;;;24.29;100.00;99775.34;5002182;28;20063;-58
2023/09/01 00:26:31;;;;;;;4.73;0.90;;;;;;;24.25;100.00;99780.06;5025150;28;20427;-57
2023/09/01 00:29:02;;;;;;;1.03;0.60;;;;;;;24.32;100.00;99780.41;5017216;28;20032;-58
2023/09/01 00:31:32;;;;;;;2.60;0.80;;;;;;;24.38;100.00;99769.22;5026943;28;20037;-59
2023/09/01 00:34:03;;;;;;;2.20;0.80;;;;;;;24.44;100.00;99755.38;5016961;28;20533;-59
2023/09/01 00:36:34;;;;;;;1.57;0.60;;;;;;;24.45;100.00;99743.75;5026835;28;20045;-57
2023/09/01 00:39:04;;;;;;;3.23;0.80;;;;;;;24.51;100.00;99732.56;5017614;28;20051;-58
2023/09/01 00:41:36;;;;;;;6.53;1.00;;;;;;;24.54;100.00;99726.97;5026783;28;20037;-56
2023/09/01 00:44:08;;;;;;;3.73;1.07;;;;;;;24.58;100.00;99722.19;5016841;28;20044;-56
2023/09/01 00:46:39;;;;;;;1.60;0.90;;;;;;;24.68;100.00;99727.63;5026112;28;20134;-56
2023/09/01 00:49:09;;;;;;;4.17;0.77;;;;;;;24.77;100.00;99732.22;5016628;28;20053;-58
2023/09/01 00:51:41;;;;;;;1.10;0.50;;;;;;;25.01;100.00;99728.44;5026670;28;20124;-57
2023/09/01 00:54:11;;;;;;;1.13;0.57;;;;;;;25.19;100.00;99737.59;5017163;28;20052;-56
2023/09/01 00:56:45;;;;;;;0.80;0.60;;;;;;;25.42;100.00;99742.78;5026410;28;20519;-57
2023/09/01 00:59:15;;;;;;;0.50;0.50;;;;;;;25.51;100.00;99744.63;5016494;28;20076;-56
2023/09/01 01:01:46;;;;;;;1.17;0.70;;;;;;;25.48;100.00;99726.19;5018187;28;20107;-57
2023/09/01 01:04:17;;;;;;;3.33;0.77;;;;;;;25.68;100.00;99719.94;5004734;28;22871;-58
2023/09/01 01:06:53;;;;;;;2.33;0.60;;;;;;;25.86;99.32;99713.97;5018019;28;20056;-58
2023/09/01 01:09:34;;;;;;;1.80;0.80;;;;;;;25.96;98.64;99720.19;4988452;28;20052;-57
2023/09/01 01:12:18;;;;;;;2.67;0.67;;;;;;;25.85;97.60;99717.59;4997307;28;20077;-56
2023/09/01 01:14:54;;;;;;;4.53;0.60;;;;;;;25.69;97.76;99718.97;5007034;28;20060;-56
2023/09/01 01:17:25;;;;;;;1.37;0.70;;;;;;;25.58;98.02;99700.31;4996058;28;20555;-57
2023/09/01 01:19:57;;;;;;;2.43;0.50;;;;;;;25.39;97.61;99696.59;5006588;28;20467;-57
2023/09/01 01:22:40;;;;;;;2.20;0.70;;;;;;;25.22;97.33;99699.91;4983914;28;20108;-56
2023/09/01 01:25:13;;;;;;;1.20;0.60;;;;;;;25.12;99.08;99709.66;4993959;28;20084;-57
2023/09/01 01:27:45;;;;;;;1.10;0.77;;;;;;;24.98;99.86;99709.00;5006173;28;20128;-56
2023/09/01 01:30:15;;;;;;;1.53;0.70;;;;;;;24.72;100.00;99683.66;4997407;28;20091;-57
2023/09/01 01:32:47;;;;;;;3.23;0.90;;;;;;;24.92;100.00;99704.19;5006670;28;20144;-57
2023/09/01 01:35:25;;;;;;;1.20;0.73;;;;;;;24.98;100.00;99698.31;4997043;28;20064;-56
2023/09/01 01:38:04;;;;;;;3.70;0.90;;;;;;;25.00;100.00;99694.66;5006450;28;20063;-57
2023/09/01 01:40:39;;;;;;;5.60;1.00;;;;;;;25.04;100.00;99696.13;5015694;28;20053;-59
2023/09/01 01:43:11;;;;;;;2.37;0.80;;;;;;;25.12;100.00;99715.00;5016351;28;20052;-58
2023/09/01 01:45:45;;;;;;;2.77;0.73;;;;;;;25.25;100.00;99721.00;5025695;28;20439;-59
2023/09/01 01:48:15;;;;;;;2.43;0.90;;;;;;;25.25;100.00;99678.22;5016451;28;20379;-58
2023/09/01 01:50:46;;;;;;;1.43;0.90;;;;;;;25.49;100.00;99687.78;5017537;28;20140;-57
2023/09/01 01:53:17;;;;;;;1.43;0.90;;;;;;;25.56;100.00;99691.59;5016393;28;20133;-57
2023/09/01 01:55:49;;;;;;;3.63;0.90;;;;;;;25.50;99.74;99702.84;5026163;28;20757;-58
2023/09/01 01:58:22;;;;;;;2.37;1.10;;;;;;;25.49;100.00;99706.50;5010490;28;20110;-60
2023/09/01 02:00:53;;;;;;;4.10;1.00;;;;;;;25.58;100.00;99717.22;5005674;28;20050;-55
2023/09/01 02:03:23;;;;;;;4.47;0.80;;;;;;;25.56;100.00;99686.22;4995780;28;20470;-58
2023/09/01 02:05:54;;;;;;;3.90;0.90;;;;;;;25.77;99.58;99705.75;5006652;28;20437;-59
2023/09/01 02:08:25;;;;;;;6.23;1.23;;;;;;;25.70;99.51;99703.75;5006526;28;20044;-59
2023/09/01 02:10:57;;;;;;;3.10;0.80;;;;;;;25.71;100.00;99679.56;5006123;28;20143;-57
2023/09/01 02:13:28;;;;;;;5.10;0.93;;;;;;;25.69;100.00;99681.50;5000746;28;20053;-57
2023/09/01 02:15:59;;;;;;;1.57;0.77;;;;;;;25.65;100.00;99679.25;5014493;28;20041;-57
2023/09/01 02:18:32;;;;;;;6.80;1.20;;;;;;;25.60;100.00;99674.28;5024926;28;20454;-59
2023/09/01 02:21:02;;;;;;;2.37;0.90;;;;;;;25.75;100.00;99664.91;5015940;28;20060;-56
2023/09/01 02:23:33;;;;;;;3.90;1.00;;;;;;;25.85;100.00;99669.44;5021357;28;20535;-56
2023/09/01 02:26:05;;;;;;;4.97;0.80;;;;;;;25.91;99.68;99674.25;4995996;28;20045;-56
2023/09/01 02:28:36;;;;;;;2.60;0.80;;;;;;;25.93;99.51;99688.34;5005511;28;20037;-57
2023/09/01 02:31:10;;;;;;;2.00;0.77;;;;;;;25.87;98.57;99672.84;4996435;28;20052;-58
2023/09/01 02:33:41;;;;;;;4.73;1.07;;;;;;;25.90;99.64;99652.00;5005529;28;20112;-58
2023/09/01 02:36:27;;;;;;;3.80;1.17;;;;;;;25.92;99.78;99630.47;5012393;28;20144;-60
2023/09/01 02:38:58;;;;;;;4.33;0.77;;;;;;;25.99;99.63;99626.25;4989695;28;20041;-58
2023/09/01 02:41:30;;;;;;;2.47;0.70;;;;;;;26.10;97.91;99630.63;5005289;28;20041;-58
2023/09/01 02:44:01;;;;;;;3.27;0.70;;;;;;;26.04;96.29;99661.47;4995770;28;20060;-56
2023/09/01 02:46:31;;;;;;;1.67;0.77;;;;;;;25.89;95.85;99670.91;5004848;28;20054;-59
2023/09/01 02:49:02;;;;;;;1.30;0.73;;;;;;;25.83;96.95;99678.47;4997732;28;20059;-56
2023/09/01 02:51:33;;;;;;;2.67;1.20;;;;;;;25.80;97.92;99668.00;5016886;28;20044;-57
2023/09/01 02:54:05;;;;;;;3.13;1.00;;;;;;;25.68;98.19;99657.56;5014396;28;20037;-57
2023/09/01 02:56:37;;;;;;;0.80;0.60;;;;;;;25.65;98.94;99653.31;5005679;28;20069;-59
2023/09/01 02:59:07;;;;;;;1.10;0.77;;;;;;;25.61;99.47;99657.28;5003340;28;20375;-59
2023/09/01 03:01:38;;;;;;;3.63;0.90;;;;;;;25.58;99.54;99662.88;5018572;28;20069;-57
2023/09/01 03:04:09;;;;;;;0.73;0.60;;;;;;;25.43;99.08;99665.06;5006973;28;20056;-58
2023/09/01 03:06:40;;;;;;;3.27;0.70;;;;;;;25.22;99.82;99637.56;5020244;28;20114;-59
2023/09/01 03:09:11;;;;;;;1.00;0.60;;;;;;;25.27;100.00;99665.59;5011106;28;20367;-60
2023/09/01 03:11:43;;;;;;;3.77;0.77;;;;;;;25.21;100.00;99644.75;5021186;28;20775;-59
2023/09/01 03:14:13;;;;;;;1.90;0.77;;;;;;;25.08;100.00;99644.91;5010580;28;20476;-60
2023/09/01 03:16:45;;;;;;;1.23;0.60;;;;;;;25.01;100.00;99658.94;5020361;28;20049;-59
2023/09/01 03:19:16;;;;;;;3.00;0.83;;;;;;;24.89;100.00;99648.34;5010242;28;20401;-59
2023/09/01 03:21:46;;;;;;;1.10;0.80;;;;;;;24.87;100.00;99636.94;5020581;28;20159;-55
2023/09/01 03:24:17;;;;;;;10.53;1.20;;;;;;;24.76;100.00;99655.69;5011513;28;20062;-59
2023/09/01 03:26:51;;;;;;;1.27;0.60;;;;;;;24.83;100.00;99654.19;5024427;28;20053;-59
2023/09/01 03:29:22;;;;;;;1.13;0.60;;;;;;;24.85;100.00;99649.56;5014090;28;20053;-57
2023/09/01 03:31:53;;;;;;;1.33;0.80;;;;;;;24.87;100.00;99647.63;5023848;28;20057;-59
2023/09/01 03:34:24;;;;;;;1.23;0.60;;;;;;;24.95;100.00;99639.78;5013593;28;20060;-59
2023/09/01 03:36:55;;;;;;;1.17;0.80;;;;;;;24.98;100.00;99644.84;5024334;28;20135;-59
2023/09/01 03:39:26;;;;;;;7.97;0.90;;;;;;;25.09;100.00;99656.47;4992533;28;20057;-59
2023/09/01 03:41:58;;;;;;;1.83;0.93;;;;;;;25.17;100.00;99648.66;5012392;28;20045;-58
2023/09/01 03:44:28;;;;;;;8.07;1.27;;;;;;;25.23;100.00;99642.75;5013859;28;20428;-59
2023/09/01 03:46:59;;;;;;;1.20;0.60;;;;;;;25.41;100.00;99624.28;5014089;28;20067;-57
2023/09/01 03:49:30;;;;;;;2.43;0.87;;;;;;;25.45;100.00;99614.13;5023214;28;20061;-58
2023/09/01 03:52:01;;;;;;;3.00;0.83;;;;;;;25.68;100.00;99639.66;5013323;28;20056;-59
2023/09/01 03:54:32;;;;;;;2.20;0.70;;;;;;;25.86;98.66;99629.19;5023222;28;20090;-60
2023/09/01 03:57:04;;;;;;;1.40;0.53;;;;;;;25.73;93.54;99597.28;5014263;28;20041;-59
2023/09/01 03:59:35;;;;;;;3.90;0.47;;;;;;;26.05;92.84;99623.00;5023988;28;20127;-59
2023/09/01 04:02:06;;;;;;;0.40;0.40;;;;;;;26.14;91.34;99599.91;5013180;28;20134;-59
2023/09/01 04:04:37;;;;;;;3.90;0.47;;;;;;;26.18;88.71;99618.19;5023133;28;20041;-59
2023/09/01 04:07:09;;;;;;;0.20;0.20;;;;;;;26.09;86.46;99616.38;5013864;28;20123;-61
2023/09/01 04:09:40;;;;;;;0.57;0.40;;;;;;;25.99;86.92;99623.56;5022885;28;20057;-61
2023/09/01 04:12:12;;;;;;;0.40;0.33;;;;;;;25.97;86.93;99614.84;5013774;28;20063;-58
2023/09/01 04:14:42;;;;;;;1.93;0.40;;;;;;;25.98;87.57;99616.50;5023520;28;20057;-60
2023/09/01 04:17:13;;;;;;;2.10;0.40;;;;;;;25.92;87.79;99601.03;5012829;28;20063;-60
2023/09/01 04:19:47;;;;;;;0.37;0.37;;;;;;;25.88;86.92;99602.28;5022915;28;20053;-60
2023/09/01 04:22:17;;;;;;;0.30;0.30;;;;;;;25.86;86.67;99606.91;5013173;28;20124;-59
2023/09/01 04:24:49;;;;;;;0.30;0.30;;;;;;;25.79;86.27;99607.44;5022966;28;20095;-59
2023/09/01 04:27:21;;;;;;;0.67;0.40;;;;;;;25.75;86.55;99600.69;5013601;28;20049;-58
2023/09/01 04:29:53;;;;;;;0.30;0.30;;;;;;;25.74;87.05;99593.66;5022321;28;20136;-60
2023/09/01 04:32:40;;;;;;;0.70;0.43;;;;;;;25.69;87.56;99595.88;5022434;28;20055;-59
2023/09/01 04:35:11;;;;;;;2.37;0.93;;;;;;;25.53;87.61;99571.50;5012217;28;20080;-61
2023/09/01 04:37:42;;;;;;;0.60;0.30;;;;;;;25.71;89.55;99593.94;5021727;28;20053;-59
2023/09/01 04:40:13;;;;;;;1.60;0.67;;;;;;;25.72;89.32;99590.25;5012290;28;20824;-61
2023/09/01 04:42:45;;;;;;;1.53;0.70;;;;;;;25.72;89.32;99595.59;5023348;28;20128;-60
2023/09/01 04:45:19;;;;;;;0.90;0.40;;;;;;;25.66;88.47;99596.19;5013019;28;20163;-60
2023/09/01 04:47:50;;;;;;;1.63;0.50;;;;;;;25.58;88.84;99582.63;5021961;28;20041;-60
2023/09/01 04:50:20;;;;;;;0.37;0.37;;;;;;;25.65;88.34;99599.81;5012184;28;20052;-59
2023/09/01 04:52:51;;;;;;;0.27;0.27;;;;;;;25.75;87.12;99610.53;5022852;28;20387;-60
2023/09/01 04:55:23;;;;;;;1.13;0.30;;;;;;;25.77;86.78;99593.34;5012095;28;20486;-60
2023/09/01 04:57:56;;;;;;;0.97;0.20;;;;;;;25.77;86.33;99582.66;5022308;28;20056;-61
2023/09/01 05:00:26;;;;;;;0.47;0.30;;;;;;;25.58;85.18;99563.91;5011994;28;20077;-60
2023/09/01 05:02:57;;;;;;;0.93;0.43;;;;;;;25.39;84.89;99541.50;5022692;28;20061;-60
2023/09/01 05:05:27;;;;;;;1.70;0.30;;;;;;;25.74;84.88;99596.31;5012740;28;20052;-61
2023/09/01 05:07:59;;;;;;;1.17;0.53;;;;;;;25.75;85.24;99595.31;5015744;28;20045;-59
2023/09/01 05:10:30;;;;;;;2.20;0.40;;;;;;;25.73;83.88;99586.59;5020319;28;20344;-61
2023/09/01 05:13:02;;;;;;;2.17;0.50;;;;;;;25.69;83.12;99585.19;5019949;28;20123;-62
2023/09/01 05:15:33;;;;;;;0.40;0.40;;;;;;;25.67;83.06;99579.13;5020037;28;20065;-58
2023/09/01 05:18:03;;;;;;;1.17;0.40;;;;;;;25.63;83.14;99583.06;5011777;28;20047;-60
2023/09/01 05:20:34;;;;;;;3.30;0.50;;;;;;;25.62;83.59;99586.72;5022083;28;20148;-62
2023/09/01 05:23:05;;;;;;;0.93;0.50;;;;;;;25.48;81.99;99582.59;5010651;28;20056;-59
2023/09/01 05:25:35;;;;;;;2.97;0.40;;;;;;;25.47;81.98;99596.13;5021171;28;20051;-59
2023/09/01 05:28:08;;;;;;;0.50;0.40;;;;;;;25.43;81.89;99589.34;5002429;28;20114;-60
2023/09/01 05:30:39;;;;;;;1.30;0.70;;;;;;;25.46;81.69;99586.41;5015859;28;20535;-61
2023/09/01 05:33:09;;;;;;;0.80;0.40;;;;;;;25.53;80.47;99584.88;5011931;28;20063;-59
2023/09/01 05:35:44;;;;;;;2.17;0.40;;;;;;;25.58;81.03;99594.16;5022333;28;20083;-61
2023/09/01 05:38:15;;;;;;;0.63;0.37;;;;;;;25.68;80.62;99599.53;5011809;28;20448;-62
2023/09/01 05:40:46;;;;;;;0.60;0.30;;;;;;;25.57;78.34;99602.34;5021946;28;20053;-59
2023/09/01 05:43:18;;;;;;;0.30;0.30;;;;;;;25.40;78.55;99607.34;5011210;28;20148;-62
2023/09/01 05:45:49;;;;;;;0.30;0.30;;;;;;;25.24;79.39;99600.84;5022027;28;20084;-60
2023/09/01 05:48:19;;;;;;;0.53;0.30;;;;;;;25.15;79.51;99602.47;5012525;28;20060;-61
2023/09/01 05:50:50;;;;;;;2.20;0.50;;;;;;;25.04;78.82;99605.25;5021878;28;20048;-61
2023/09/01 05:53:20;;;;;;;0.60;0.60;;;;;;;24.93;78.99;99604.31;5010721;28;20448;-62
2023/09/01 05:55:51;;;;;;;1.40;0.30;;;;;;;24.85;78.69;99601.47;5022309;28;20115;-61
2023/09/01 05:58:24;;;;;;;0.23;0.20;;;;;;;24.75;77.89;99600.56;4992487;28;20128;-62
2023/09/01 06:00:54;;;;;;;0.73;0.60;;;;;;;24.60;78.82;99585.88;5000869;28;20080;-62
2023/09/01 06:03:25;;;;;;;1.30;0.30;;;;;;;24.50;79.07;99581.31;4991108;28;20053;-61
2023/09/01 06:05:56;;;;;;;0.80;0.40;;;;;;;24.48;80.58;99583.25;5001818;28;20124;-59
2023/09/01 06:08:26;;;;;;;1.80;0.40;;;;;;;24.44;81.49;99591.66;4999977;28;20468;-62
2023/09/01 06:11:05;;;;;;;0.30;0.30;;;;;;;24.35;81.65;99587.91;5019621;28;20126;-61
2023/09/01 06:13:37;;;;;;;1.20;0.50;;;;;;;24.38;81.58;99606.34;5021469;28;20051;-63
2023/09/01 06:16:10;;;;;;;1.90;0.50;;;;;;;24.29;81.93;99583.13;5010979;28;20057;-64
2023/09/01 06:18:41;;;;;;;0.77;0.30;;;;;;;24.30;82.14;99585.63;5021237;28;20056;-62
2023/09/01 06:21:15;;;;;;;1.20;0.80;;;;;;;24.26;82.76;99594.03;5010641;28;20080;-62
2023/09/01 06:23:48;;;;;;;2.47;0.67;;;;;;;24.31;83.88;99591.81;5020997;28;20139;-63
2023/09/01 06:26:20;;;;;;;1.10;0.60;;;;;;;24.31;83.14;99575.78;5010778;28;20483;-63
2023/09/01 06:28:52;;;;;;;2.13;0.30;;;;;;;24.31;82.97;99576.66;5021565;28;20051;-63
2023/09/01 06:31:23;;;;;;;2.80;0.53;;;;;;;24.29;83.71;99575.09;4998742;28;20144;-58
2023/09/01 06:33:53;;;;;;;0.50;0.50;;;;;;;24.33;84.64;99580.03;5001766;28;20037;-63
2023/09/01 06:36:24;;;;;;;0.40;0.40;;;;;;;24.38;85.98;99574.31;4990963;28;20475;-62
2023/09/01 06:38:54;;;;;;;5.43;1.50;;;;;;;24.39;87.10;99562.66;5009165;28;21220;-62
2023/09/01 06:41:24;;;;;;;1.80;1.00;;;;;;;24.40;86.86;99548.31;5011198;28;20072;-59
2023/09/01 06:43:57;;;;;;;2.10;0.40;;;;;;;24.33;85.03;99544.47;5021225;28;20140;-61
2023/09/01 06:46:27;;;;;;;1.03;0.57;;;;;;;24.37;86.10;99547.75;4990332;28;20095;-60
2023/09/01 06:48:58;;;;;;;1.00;0.60;;;;;;;24.42;86.88;99553.53;5011591;28;20111;-59
2023/09/01 06:51:28;;;;;;;2.47;1.13;;;;;;;24.46;87.07;99557.66;5021975;28;20044;-61
2023/09/01 06:53:59;;;;;;;2.13;0.60;;;;;;;24.46;87.31;99557.66;5019351;28;20045;-60
2023/09/01 06:56:29;;;;;;;2.80;1.40;;;;;;;24.46;87.34;99555.84;5020345;28;20454;-60
2023/09/01 06:59:01;;;;;;;2.30;1.20;;;;;;;24.49;88.14;99563.59;5010597;28;20060;-60
2023/09/01 07:01:35;;;;;;;1.53;0.60;;;;;;;24.42;85.25;99562.41;5023091;28;20494;-60
2023/09/01 07:04:07;;;;;;;0.40;0.30;;;;;;;24.42;84.22;99565.06;5014412;28;20498;-61
2023/09/01 07:06:37;;;;;;;0.40;0.40;;;;;;;24.36;84.40;99573.56;5024933;28;20148;-62
2023/09/01 07:09:08;;;;;;;5.90;0.70;;;;;;;24.33;84.99;99581.84;5015120;28;20135;-61
2023/09/01 07:11:38;;;;;;;1.20;0.50;;;;;;;24.30;85.51;99590.13;5034257;28;20048;-61
2023/09/01 07:14:11;;;;;;;1.90;0.60;;;;;;;24.22;85.04;99576.59;5017092;28;20060;-63
2023/09/01 07:16:41;;;;;;;1.00;0.50;;;;;;;24.15;84.59;99559.41;5042529;28;20064;-62
2023/09/01 07:19:12;;;;;;;2.17;0.43;;;;;;;24.04;84.75;99563.81;5020874;28;20132;-63
2023/09/01 07:21:42;;;;;;;0.87;0.50;;;;;;;23.96;85.13;99563.59;5031929;28;20068;-63
2023/09/01 07:24:13;;;;;;;1.13;0.20;;;;;;;23.86;85.19;99568.00;5022903;28;20138;-62
2023/09/01 07:26:44;;;;;;;1.07;0.47;;;;;;;23.77;86.16;99571.44;5034433;28;20072;-63
2023/09/01 07:29:16;;;;;;;0.63;0.60;;;;;;;23.60;85.50;99586.97;5032043;28;20040;-56
2023/09/01 07:31:47;;;;;;;1.43;0.50;;;;;;;23.49;86.10;99579.00;5033750;28;20037;-62
2023/09/01 07:34:17;;;;;;;5.27;1.07;;;;;;;23.39;87.01;99584.22;5023494;28;20123;-63
2023/09/01 07:36:48;;;;;;;2.67;1.50;;;;;;;23.36;88.63;99588.94;5033048;28;20081;-61
2023/09/01 07:39:18;;;;;;;0.50;0.50;;;;;;;23.27;88.20;99581.69;5023866;28;20041;-61
2023/09/01 07:41:49;;;;;;;3.20;0.90;;;;;;;23.17;89.22;99576.25;5035519;28;20049;-62
2023/09/01 07:44:21;;;;;;;3.80;1.80;;;;;;;23.17;90.22;99569.09;5022873;28;20061;-62
2023/09/01 07:46:52;;;;;;;3.00;1.40;;;;;;;23.12;91.32;99571.28;5033553;28;20479;-59
2023/09/01 07:49:23;;;;;;;2.10;1.33;;;;;;;23.10;93.17;99573.22;5014242;28;20041;-61
2023/09/01 07:51:53;;;;;;;3.63;1.77;;;;;;;23.10;94.60;99581.22;5015607;28;20041;-62
2023/09/01 07:54:24;;;;;;;2.90;0.90;;;;;;;23.10;94.24;99585.69;5016097;28;20136;-62
2023/09/01 07:56:54;;;;;;;2.50;0.87;;;;;;;23.05;95.25;99580.72;5034970;28;20136;-62
2023/09/01 07:59:26;;;;;;;3.93;1.53;;;;;;;22.95;95.87;99574.41;5024286;28;20444;-62
2023/09/01 08:01:57;;;;;;;2.93;1.93;;;;;;;22.85;96.63;99568.94;5028310;28;20041;-61
2023/09/01 08:04:28;;;;;;;4.07;1.40;;;;;;;22.81;97.78;99571.03;5033921;28;20059;-61
2023/09/01 08:06:59;;;;;;;3.33;1.27;;;;;;;22.74;98.40;99575.13;5023072;28;20072;-62
2023/09/01 08:09:30;;;;;;;2.20;1.10;;;;;;;22.70;99.49;99581.66;5042256;28;20049;-61
2023/09/01 08:12:00;;;;;;;2.50;1.03;;;;;;;22.42;99.67;99544.81;5022953;28;20076;-59
2023/09/01 08:14:32;;;;;;;1.27;0.83;;;;;;;22.54;100.00;99576.66;5031341;28;20243;-62
2023/09/01 08:17:04;;;;;;;3.67;1.10;;;;;;;22.49;100.00;99583.28;5013719;28;20049;-61
2023/09/01 08:19:36;;;;;;;1.17;0.57;;;;;;;22.40;100.00;99575.06;5022284;28;20052;-58
2023/09/01 08:22:06;;;;;;;0.57;0.50;;;;;;;22.36;100.00;99583.38;5014590;28;20150;-61
2023/09/01 08:24:37;;;;;;;1.67;0.40;;;;;;;22.08;100.00;99547.34;5023627;28;20140;-61
2023/09/01 08:27:07;;;;;;;4.50;0.70;;;;;;;22.29;100.00;99585.69;5013368;28;20053;-62
2023/09/01 08:29:41;;;;;;;3.87;2.67;;;;;;;22.24;100.00;99579.88;5022704;28;20063;-61
2023/09/01 08:32:12;;;;;;;2.33;2.03;;;;;;;22.18;100.00;99583.78;5012399;28;20143;-62
2023/09/01 08:34:42;;;;;;;3.13;1.00;;;;;;;22.13;100.00;99577.13;5023312;28;20531;-62
2023/09/01 08:37:15;;;;;;;1.30;0.60;;;;;;;22.08;100.00;99573.97;5013323;28;20173;-61
2023/09/01 08:39:46;;;;;;;1.97;0.50;;;;;;;22.03;100.00;99573.47;5023069;28;20053;-61
2023/09/01 08:42:18;;;;;;;4.53;0.70;;;;;;;21.98;100.00;99574.63;5014023;28;20049;-59
2023/09/01 08:44:51;;;;;;;3.03;0.50;;;;;;;21.92;100.00;99564.47;5023332;28;20057;-59
2023/09/01 08:47:23;;;;;;;2.30;0.50;;;;;;;21.84;100.00;99566.00;5012517;28;20071;-59
2023/09/01 08:49:54;;;;;;;3.97;0.60;;;;;;;21.80;100.00;99557.41;5021271;28;20141;-58
2023/09/01 08:52:27;;;;;;;5.13;0.70;;;;;;;21.73;100.00;99558.81;5012002;28;20044;-59
2023/09/01 08:54:59;;;;;;;2.17;0.60;;;;;;;21.65;100.00;99569.19;5018469;28;20053;-60
2023/09/01 08:57:29;;;;;;;2.87;0.77;;;;;;;21.59;100.00;99569.59;5022440;28;20083;-61
2023/09/01 09:00:04;;;;;;;2.73;0.40;;;;;;;21.52;100.00;99572.72;5012790;28;20075;-59
2023/09/01 09:02:35;;;;;;;3.73;0.73;;;;;;;21.48;100.00;99571.25;4998326;28;20123;-62
2023/09/01 09:05:10;;;;;;;5.97;0.83;;;;;;;21.30;100.00;99541.50;5025292;28;20044;-62
2023/09/01 09:07:42;;;;;;;6.23;1.00;;;;;;;21.36;100.00;99561.47;5035313;28;20049;-61
2023/09/01 09:10:14;;;;;;;0.67;0.60;;;;;;;21.30;100.00;99568.09;5055326;28;20052;-62
2023/09/01 09:12:45;;;;;;;2.93;0.70;;;;;;;21.06;100.00;99528.19;5025796;28;20376;-61
2023/09/01 09:15:20;;;;;;;4.70;0.87;;;;;;;21.24;100.00;99554.38;5012705;28;20057;-61
2023/09/01 09:17:52;;;;;;;3.07;0.93;;;;;;;21.21;100.00;99559.91;5022380;28;20372;-61
2023/09/01 09:20:24;;;;;;;3.37;1.10;;;;;;;21.16;100.00;99554.94;4991452;28;20221;-61
2023/09/01 09:22:57;;;;;;;4.13;1.20;;;;;;;21.08;100.00;99562.59;5001626;28;20068;-60
2023/09/01 09:25:29;;;;;;;3.87;1.23;;;;;;;21.04;100.00;99572.63;5011838;28;20098;-61
2023/09/01 09:28:03;;;;;;;5.63;1.60;;;;;;;20.97;100.00;99571.34;5011320;28;20276;-61
2023/09/01 09:30:36;;;;;;;5.40;1.33;;;;;;;20.92;100.00;99568.16;5022536;28;20053;-61
2023/09/01 09:33:08;;;;;;;2.10;1.03;;;;;;;20.90;100.00;99578.03;5013082;28;20045;-60
2023/09/01 09:35:51;;;;;;;4.10;1.20;;;;;;;20.86;100.00;99589.81;5022223;28;20036;-61
2023/09/01 09:38:23;;;;;;;4.23;1.43;;;;;;;20.82;100.00;99598.97;5011605;28;20114;-61
2023/09/01 09:41:01;;;;;;;6.87;1.57;;;;;;;20.56;100.00;99564.44;5021078;28;20494;-61
2023/09/01 09:43:45;;;;;;;3.72;1.58;;;;;;;20.76;100.00;99594.06;5011016;28;20064;-61
2023/09/01 09:46:21;;;;;;;6.87;3.10;;;;;;;20.77;100.00;99607.25;5011971;28;20531;-59
2023/09/01 09:48:54;;;;;;;8.20;3.07;;;;;;;20.75;100.00;99605.66;5020991;28;20048;-60
2023/09/01 09:51:26;;;;;;;7.83;3.30;;;;;;;20.71;100.00;99606.81;4991325;28;20284;-61
2023/09/01 09:53:59;;;;;;;7.13;4.03;;;;;;;20.63;100.00;99594.91;5008529;28;20503;-59
2023/09/01 09:56:33;;;;;;;8.87;4.67;;;;;;;20.58;100.00;99597.03;5021492;28;20816;-59
2023/09/01 09:59:06;;;;;;;6.30;4.90;;;;;;;20.56;100.00;99609.56;5011422;28;20049;-58
2023/09/01 10:01:43;;;;;;;13.17;5.33;;;;;;;20.47;100.00;99615.47;5021136;28;20052;-60
2023/09/01 10:04:17;;;;;;;5.77;4.10;;;;;;;20.51;100.00;99622.25;5010634;28;20323;-59
2023/09/01 10:06:49;;;;;;;8.43;2.30;;;;;;;20.50;100.00;99619.72;5021784;28;20606;-61
2023/09/01 10:09:22;;;;;;;9.17;2.97;;;;;;;20.47;100.00;99620.78;5011761;28;20280;-59
2023/09/01 10:11:55;;;;;;;6.03;4.17;;;;;;;20.47;100.00;99624.28;5020985;28;20311;-59
2023/09/01 10:14:29;;;;;;;9.60;4.63;;;;;;;20.44;100.00;99615.66;5010666;28;20595;-61
2023/09/01 10:17:03;;;;;;;7.97;3.17;;;;;;;20.42;100.00;99614.94;5011491;28;20971;-60
2023/09/01 10:19:37;;;;;;;4.63;2.50;;;;;;;20.37;100.00;99614.41;5020684;28;20418;-61
2023/09/01 10:22:09;;;;;;;4.20;1.53;;;;;;;20.35;100.00;99616.31;5010467;28;20286;-59
2023/09/01 10:24:41;;;;;;;5.00;1.83;;;;;;;20.31;100.00;99622.75;5020665;28;20288;-60
2023/09/01 10:27:13;;;;;;;6.30;1.90;;;;;;;20.25;100.00;99622.22;5011893;28;20295;-60
2023/09/01 10:29:45;;;;;;;2.97;1.40;;;;;;;20.22;100.00;99625.09;5020901;28;20341;-60
2023/09/01 10:32:38;;;;;;;8.17;2.30;;;;;;;20.19;100.00;99627.94;5011367;28;20310;-62
2023/09/01 10:35:52;;;;;;;4.67;3.00;;;;;;;20.16;100.00;99617.50;5019693;28;20374;-61
2023/09/01 10:38:40;;;;;;;9.60;2.47;;;;;;;20.13;100.00;99628.34;5010613;28;20295;-59
2023/09/01 10:41:14;;;;;;;4.93;2.20;;;;;;;20.09;100.00;99621.53;5011069;28;20746;-61
2023/09/01 10:43:56;;;;;;;5.43;2.57;;;;;;;19.93;100.00;99610.25;5020929;28;20422;-61
2023/09/01 10:46:28;;;;;;;6.03;2.07;;;;;;;19.98;100.00;99634.66;5010842;28;20379;-63
2023/09/01 10:49:04;;;;;;;5.47;1.83;;;;;;;19.76;100.00;99608.69;5011012;28;20285;-62
2023/09/01 10:51:37;;;;;;;3.47;1.50;;;;;;;19.96;100.00;99641.84;5021265;28;20276;-56
2023/09/01 10:54:42;;;;;;;3.93;1.70;;;;;;;19.98;100.00;99639.97;5011173;28;20635;-60
2023/09/01 10:57:16;;;;;;;5.23;2.60;;;;;;;19.97;100.00;99643.56;4988611;28;20288;-60
2023/09/01 10:59:48;;;;;;;3.73;1.53;;;;;;;19.95;100.00;99650.78;5020755;28;20282;-62
2023/09/01 11:02:21;;;;;;;3.00;1.63;;;;;;;19.92;100.00;99645.63;5010405;28;20299;-60
2023/09/01 11:04:55;;;;;;;5.87;1.60;;;;;;;19.86;100.00;99651.34;5020127;28;20279;-60
2023/09/01 11:07:27;;;;;;;3.33;1.83;;;;;;;19.83;100.00;99653.25;5010286;28;20610;-61
2023/09/01 11:09:58;;;;;;;3.20;1.90;;;;;;;19.79;100.00;99651.75;5012967;28;20283;-61
2023/09/01 11:12:32;;;;;;;4.73;1.60;;;;;;;19.77;100.00;99653.66;5021227;28;20279;-62
2023/09/01 11:15:05;;;;;;;3.70;1.80;;;;;;;19.70;100.00;99652.34;5011042;28;20316;-61
2023/09/01 11:17:49;;;;;;;8.43;2.33;;;;;;;19.45;100.00;99605.31;5020473;28;20362;-62
2023/09/01 11:20:31;;;;;;;7.27;2.03;;;;;;;19.61;100.00;99637.00;5009989;28;20272;-61
2023/09/01 11:23:03;;;;;;;4.83;2.10;;;;;;;19.58;100.00;99647.78;5011362;28;20298;-62
2023/09/01 11:25:35;;;;;;;10.67;2.07;;;;;;;19.53;100.00;99639.28;5021039;28;20394;-60
2023/09/01 11:28:13;;;;;;;7.67;1.90;;;;;;;19.44;100.00;99643.34;5010091;28;20316;-59
2023/09/01 11:30:55;;;;;;;3.70;1.90;;;;;;;19.35;100.00;99636.00;5020689;28;20283;-62
2023/09/01 11:33:28;;;;;;;6.50;1.83;;;;;;;19.26;100.00;99648.00;4991183;28;20279;-62
2023/09/01 11:36:10;;;;;;;6.83;1.80;;;;;;;19.19;100.00;99641.38;4999046;28;20829;-61
2023/09/01 11:38:43;;;;;;;9.00;2.10;;;;;;;19.07;100.00;99631.53;5020811;28;20289;-61
2023/09/01 11:41:18;;;;;;;6.90;1.80;;;;;;;19.17;100.00;99651.25;5010844;28;20330;-60
2023/09/01 11:43:50;;;;;;;10.27;2.20;;;;;;;19.16;100.00;99646.88;5020563;28;20366;-61
2023/09/01 11:46:33;;;;;;;4.90;1.80;;;;;;;19.10;100.00;99649.91;5011189;28;20268;-61
2023/09/01 11:49:06;;;;;;;5.07;2.27;;;;;;;19.05;100.00;99638.75;5013478;28;20294;-61
2023/09/01 11:51:40;;;;;;;8.53;2.20;;;;;;;19.09;100.00;99653.50;5024002;28;20284;-60
2023/09/01 11:54:12;;;;;;;4.87;1.80;;;;;;;19.11;100.00;99654.25;5013774;28;20303;-61